Time,TemperatureF,DewpointF,PressureIn,WindDirection,WindDirectionDegrees,WindSpeedMPH,WindSpeedGustMPH,Humidity,HourlyPrecipIn,Conditions,Clouds,dailyrainin,SoftwareType,DateUTC
2013-06-21 00:05:00,53.5,51.0,30.20,NNW,336,0.0,0.0,92,0.00,,,0.00,weatherlink.com 1.10,2013-06-21 04:05:00,
2013-06-21 00:20:00,53.0,51.0,30.20,NNW,336,0.0,0.0,92,0.00,,,0.00,weatherlink.com 1.10,2013-06-21 04:20:00,
2013-06-21 00:35:00,53.0,51.0,30.20,NNW,336,2.0,4.0,93,0.00,,,0.00,weatherlink.com 1.10,2013-06-21 04:35:00,
2013-06-21 00:52:00,53.6,52.0,30.20,NW,306,1.0,5.0,93,0.00,,,0.00,weatherlink.com 1.10,2013-06-21 04:52:00,
2013-06-21 01:05:00,54.1,52.0,30.21,NW,306,0.0,3.0,93,0.00,,,0.00,weatherlink.com 1.10,2013-06-21 05:05:00,
2013-06-21 01:21:00,54.0,52.0,30.21,NW,306,0.0,1.0,92,0.00,,,0.00,weatherlink.com 1.10,2013-06-21 05:21:00,
2013-06-21 01:36:00,53.4,51.0,30.20,NW,306,0.0,1.0,92,0.00,,,0.00,weatherlink.com 1.10,2013-06-21 05:36:00,
2013-06-21 01:52:00,53.0,51.0,30.20,NW,306,0.0,1.0,94,0.00,,,0.00,weatherlink.com 1.10,2013-06-21 05:52:00,
2013-06-21 02:06:00,52.9,51.0,30.20,NW,306,0.0,1.0,94,0.00,,,0.00,weatherlink.com 1.10,2013-06-21 06:06:00,
2013-06-21 02:21:00,52.3,51.0,30.20,NW,306,0.0,0.0,94,0.00,,,0.00,weatherlink.com 1.10,2013-06-21 06:21:00,
2013-06-21 02:36:00,52.4,51.0,30.20,NW,306,0.0,1.0,95,0.00,,,0.00,weatherlink.com 1.10,2013-06-21 06:36:00,
2013-06-21 02:51:00,51.8,50.0,30.20,NW,306,0.0,1.0,94,0.00,,,0.00,weatherlink.com 1.10,2013-06-21 06:51:00,
2013-06-21 03:07:00,51.8,51.0,30.20,NW,306,0.0,1.0,95,0.00,,,0.00,weatherlink.com 1.10,2013-06-21 07:07:00,
2013-06-21 03:21:00,51.7,50.0,30.20,NW,306,0.0,0.0,95,0.00,,,0.00,weatherlink.com 1.10,2013-06-21 07:21:00,
2013-06-21 03:36:00,51.3,50.0,30.20,NW,306,0.0,0.0,95,0.00,,,0.00,weatherlink.com 1.10,2013-06-21 07:36:00,
2013-06-21 03:51:00,51.2,50.0,30.20,NW,306,0.0,0.0,95,0.00,,,0.00,weatherlink.com 1.10,2013-06-21 07:51:00,
2013-06-21 04:07:00,51.2,50.0,30.20,NW,306,0.0,0.0,95,0.00,,,0.00,weatherlink.com 1.10,2013-06-21 08:07:00,
2013-06-21 04:22:00,50.9,50.0,30.20,NW,306,0.0,0.0,95,0.00,,,0.00,weatherlink.com 1.10,2013-06-21 08:22:00,
2013-06-21 04:37:00,50.5,49.0,30.20,NW,306,0.0,0.0,95,0.00,,,0.00,weatherlink.com 1.10,2013-06-21 08:37:00,
2013-06-21 04:52:00,50.3,49.0,30.20,NW,306,0.0,0.0,95,0.00,,,0.00,weatherlink.com 1.10,2013-06-21 08:52:00,
2013-06-21 05:07:00,50.2,49.0,30.21,NW,306,0.0,0.0,95,0.00,,,0.00,weatherlink.com 1.10,2013-06-21 09:07:00,
2013-06-21 05:22:00,50.0,49.0,30.21,NW,306,0.0,0.0,95,0.00,,,0.00,weatherlink.com 1.10,2013-06-21 09:22:00,
2013-06-21 05:38:00,50.0,49.0,30.21,NW,306,0.0,0.0,95,0.00,,,0.00,weatherlink.com 1.10,2013-06-21 09:38:00,
2013-06-21 05:52:00,50.6,50.0,30.22,NE,50,0.0,0.0,96,0.00,,,0.00,weatherlink.com 1.10,2013-06-21 09:52:00,
2013-06-21 06:07:00,51.1,50.0,30.22,WSW,246,0.0,2.0,96,0.00,,,0.00,weatherlink.com 1.10,2013-06-21 10:07:00,
2013-06-21 06:22:00,51.8,51.0,30.22,WSW,246,0.0,0.0,96,0.00,,,0.00,weatherlink.com 1.10,2013-06-21 10:22:00,
2013-06-21 06:38:00,52.6,52.0,30.22,WSW,246,0.0,0.0,96,0.00,,,0.00,weatherlink.com 1.10,2013-06-21 10:38:00,
2013-06-21 06:53:00,53.2,52.0,30.22,WSW,246,0.0,0.0,96,0.00,,,0.00,weatherlink.com 1.10,2013-06-21 10:53:00,
2013-06-21 07:09:00,55.0,54.0,30.22,West,268,0.0,1.0,97,0.00,,,0.00,weatherlink.com 1.10,2013-06-21 11:09:00,
2013-06-21 07:23:00,55.7,55.0,30.23,East,85,0.0,1.0,97,0.00,,,0.00,weatherlink.com 1.10,2013-06-21 11:23:00,
2013-06-21 07:38:00,57.1,56.0,30.23,NW,326,0.0,1.0,97,0.00,,,0.00,weatherlink.com 1.10,2013-06-21 11:38:00,
2013-06-21 07:53:00,59.1,58.0,30.22,NW,317,0.0,2.0,96,0.00,,,0.00,weatherlink.com 1.10,2013-06-21 11:53:00,
2013-06-21 08:08:00,61.5,59.0,30.23,SE,143,0.0,1.0,91,0.00,,,0.00,weatherlink.com 1.10,2013-06-21 12:08:00,
2013-06-21 08:24:00,63.6,60.0,30.23,SSW,202,0.0,3.0,87,0.00,,,0.00,weatherlink.com 1.10,2013-06-21 12:24:00,
2013-06-21 08:39:00,65.4,60.0,30.22,West,263,1.0,3.0,83,0.00,,,0.00,weatherlink.com 1.10,2013-06-21 12:39:00,
2013-06-21 08:54:00,66.9,61.0,30.22,SSE,148,1.0,4.0,81,0.00,,,0.00,weatherlink.com 1.10,2013-06-21 12:54:00,
2013-06-21 09:09:00,68.1,62.0,30.21,East,98,0.0,1.0,81,0.00,,,0.00,weatherlink.com 1.10,2013-06-21 13:09:00,
2013-06-21 09:24:00,69.3,63.0,30.22,East,87,3.0,3.0,79,0.00,,,0.00,weatherlink.com 1.10,2013-06-21 13:24:00,
2013-06-21 09:39:00,68.8,61.0,30.21,NW,313,0.0,3.0,77,0.00,,,0.00,weatherlink.com 1.10,2013-06-21 13:39:00,
2013-06-21 09:55:00,68.2,61.0,30.21,WSW,250,3.0,4.0,78,0.00,,,0.00,weatherlink.com 1.10,2013-06-21 13:55:00,
2013-06-21 10:09:00,68.8,62.0,30.22,North,350,1.0,6.0,80,0.00,,,0.00,weatherlink.com 1.10,2013-06-21 14:09:00,
2013-06-21 10:26:00,69.2,61.0,30.22,NNW,331,3.0,8.0,76,0.00,,,0.00,weatherlink.com 1.10,2013-06-21 14:26:00,
2013-06-21 10:40:00,70.2,62.0,30.22,NW,313,4.0,4.0,76,0.00,,,0.00,weatherlink.com 1.10,2013-06-21 14:40:00,
2013-06-21 10:55:00,71.6,63.0,30.22,NNW,338,1.0,4.0,75,0.00,,,0.00,weatherlink.com 1.10,2013-06-21 14:55:00,
2013-06-21 11:10:00,71.0,62.0,30.22,WNW,286,1.0,7.0,74,0.00,,,0.00,weatherlink.com 1.10,2013-06-21 15:10:00,
2013-06-21 11:25:00,71.6,62.0,30.21,NNW,329,3.0,8.0,72,0.00,,,0.00,weatherlink.com 1.10,2013-06-21 15:25:00,
2013-06-21 11:40:00,73.2,62.0,30.21,NW,305,0.0,8.0,67,0.00,,,0.00,weatherlink.com 1.10,2013-06-21 15:40:00,
2013-06-21 11:55:00,73.2,62.0,30.21,East,98,0.0,5.0,67,0.00,,,0.00,weatherlink.com 1.10,2013-06-21 15:55:00,
2013-06-21 12:10:00,73.6,62.0,30.21,WSW,246,1.0,7.0,67,0.00,,,0.00,weatherlink.com 1.10,2013-06-21 16:10:00,
2013-06-21 12:26:00,74.9,65.0,30.21,East,99,1.0,8.0,70,0.00,,,0.00,weatherlink.com 1.10,2013-06-21 16:26:00,
2013-06-21 12:56:00,74.0,62.0,30.20,NNW,332,0.0,9.0,66,0.00,,,0.00,weatherlink.com 1.10,2013-06-21 16:56:00,
2013-06-21 13:12:00,74.1,62.0,30.20,West,279,1.0,9.0,65,0.00,,,0.00,weatherlink.com 1.10,2013-06-21 17:12:00,
2013-06-21 13:41:00,75.0,62.0,30.19,West,279,1.0,8.0,65,0.00,,,0.00,weatherlink.com 1.10,2013-06-21 17:41:00,
2013-06-21 13:57:00,76.1,62.0,30.19,WNW,302,3.0,7.0,61,0.00,,,0.00,weatherlink.com 1.10,2013-06-21 17:57:00,
2013-06-21 14:26:00,76.3,61.0,30.18,WNW,302,3.0,6.0,60,0.00,,,0.00,weatherlink.com 1.10,2013-06-21 18:26:00,
2013-06-21 14:42:00,76.9,62.0,30.18,NE,35,0.0,7.0,60,0.00,,,0.00,weatherlink.com 1.10,2013-06-21 18:42:00,
2013-06-21 14:57:00,76.6,62.0,30.18,North,355,5.0,8.0,60,0.00,,,0.00,weatherlink.com 1.10,2013-06-21 18:57:00,
2013-06-21 15:12:00,76.6,61.0,30.17,NW,314,6.0,8.0,58,0.00,,,0.00,weatherlink.com 1.10,2013-06-21 19:12:00,
2013-06-21 15:27:00,76.7,61.0,30.17,NW,306,4.0,5.0,58,0.00,,,0.00,weatherlink.com 1.10,2013-06-21 19:27:00,
2013-06-21 15:42:00,76.7,63.0,30.17,NW,315,4.0,5.0,62,0.00,,,0.00,weatherlink.com 1.10,2013-06-21 19:42:00,
2013-06-21 15:57:00,76.2,63.0,30.17,NNW,337,0.0,5.0,63,0.00,,,0.00,weatherlink.com 1.10,2013-06-21 19:57:00,
2013-06-21 16:12:00,75.2,61.0,30.17,NNW,327,3.0,4.0,62,0.00,,,0.00,weatherlink.com 1.10,2013-06-21 20:12:00,
2013-06-21 16:28:00,74.8,63.0,30.17,NNW,338,0.0,3.0,67,0.00,,,0.00,weatherlink.com 1.10,2013-06-21 20:28:00,
2013-06-21 16:42:00,75.4,64.0,30.16,SSE,158,1.0,5.0,67,0.00,,,0.00,weatherlink.com 1.10,2013-06-21 20:42:00,
2013-06-21 16:57:00,77.1,63.0,30.16,South,173,0.0,6.0,63,0.00,,,0.00,weatherlink.com 1.10,2013-06-21 20:57:00,
2013-06-21 17:13:00,76.4,62.0,30.16,ENE,77,1.0,5.0,62,0.00,,,0.00,weatherlink.com 1.10,2013-06-21 21:13:00,
2013-06-21 17:28:00,76.3,63.0,30.16,NE,46,1.0,7.0,64,0.00,,,0.00,weatherlink.com 1.10,2013-06-21 21:28:00,
2013-06-21 17:43:00,75.7,61.0,30.16,West,277,1.0,5.0,61,0.00,,,0.00,weatherlink.com 1.10,2013-06-21 21:43:00,
2013-06-21 17:58:00,75.0,61.0,30.16,West,274,0.0,4.0,61,0.00,,,0.00,weatherlink.com 1.10,2013-06-21 21:58:00,
2013-06-21 18:13:00,76.2,63.0,30.16,NNE,26,2.0,5.0,63,0.00,,,0.00,weatherlink.com 1.10,2013-06-21 22:13:00,
2013-06-21 18:28:00,76.2,61.0,30.16,NNW,336,2.0,7.0,60,0.00,,,0.00,weatherlink.com 1.10,2013-06-21 22:28:00,
2013-06-21 18:43:00,76.2,61.0,30.16,WNW,294,0.0,2.0,60,0.00,,,0.00,weatherlink.com 1.10,2013-06-21 22:43:00,
2013-06-21 18:58:00,74.3,63.0,30.16,WNW,294,0.0,1.0,67,0.00,,,0.00,weatherlink.com 1.10,2013-06-21 22:58:00,
2013-06-21 19:13:00,71.9,63.0,30.16,WNW,294,0.0,0.0,73,0.00,,,0.00,weatherlink.com 1.10,2013-06-21 23:13:00,
2013-06-21 19:28:00,71.3,62.0,30.16,WNW,294,0.0,1.0,73,0.00,,,0.00,weatherlink.com 1.10,2013-06-21 23:28:00,
2013-06-21 19:43:00,70.7,63.0,30.16,WNW,294,0.0,2.0,76,0.00,,,0.00,weatherlink.com 1.10,2013-06-21 23:43:00,
2013-06-21 19:59:00,69.7,63.0,30.16,WNW,294,0.0,0.0,78,0.00,,,0.00,weatherlink.com 1.10,2013-06-21 23:59:00,
2013-06-21 20:14:00,68.4,62.0,30.16,WNW,294,2.0,2.0,81,0.00,,,0.00,weatherlink.com 1.10,2013-06-22 00:14:00,
2013-06-21 20:29:00,67.2,62.0,30.15,North,355,0.0,3.0,83,0.00,,,0.00,weatherlink.com 1.10,2013-06-22 00:29:00,
2013-06-21 20:44:00,66.6,62.0,30.15,NW,311,0.0,4.0,84,0.00,,,0.00,weatherlink.com 1.10,2013-06-22 00:44:00,
2013-06-21 20:59:00,66.2,62.0,30.16,NW,311,0.0,1.0,85,0.00,,,0.00,weatherlink.com 1.10,2013-06-22 00:59:00,
2013-06-21 21:14:00,66.1,62.0,30.16,NW,311,1.0,1.0,85,0.00,,,0.00,weatherlink.com 1.10,2013-06-22 01:14:00,
2013-06-21 21:29:00,65.7,62.0,30.16,NW,311,0.0,2.0,86,0.00,,,0.00,weatherlink.com 1.10,2013-06-22 01:29:00,
2013-06-21 21:44:00,65.0,61.0,30.16,NW,311,0.0,2.0,87,0.00,,,0.00,weatherlink.com 1.10,2013-06-22 01:44:00,
2013-06-21 21:59:00,64.1,61.0,30.16,NW,311,0.0,0.0,88,0.00,,,0.00,weatherlink.com 1.10,2013-06-22 01:59:00,
2013-06-21 22:14:00,63.0,60.0,30.16,NW,311,0.0,3.0,90,0.00,,,0.00,weatherlink.com 1.10,2013-06-22 02:14:00,
2013-06-21 22:29:00,62.5,60.0,30.16,NW,311,0.0,2.0,90,0.00,,,0.00,weatherlink.com 1.10,2013-06-22 02:29:00,
2013-06-21 22:44:00,61.7,59.0,30.16,NW,311,1.0,1.0,91,0.00,,,0.00,weatherlink.com 1.10,2013-06-22 02:44:00,
2013-06-21 23:00:00,61.2,59.0,30.16,NW,311,0.0,2.0,92,0.00,,,0.00,weatherlink.com 1.10,2013-06-22 03:00:00,
2013-06-21 23:16:00,61.0,59.0,30.16,NW,311,0.0,2.0,92,0.00,,,0.00,weatherlink.com 1.10,2013-06-22 03:16:00,
2013-06-21 23:30:00,60.6,58.0,30.17,NW,311,0.0,1.0,92,0.00,,,0.00,weatherlink.com 1.10,2013-06-22 03:30:00,
2013-06-21 23:45:00,60.0,58.0,30.16,NW,311,0.0,1.0,93,0.00,,,0.00,weatherlink.com 1.10,2013-06-22 03:45:00,